createdAt,value
2022-10-19T00:01:33.497Z,8.34
2022-10-19T00:04:02.482Z,8.41
2022-10-19T00:06:36.405Z,8.36
2022-10-19T00:09:06.877Z,8.10
2022-10-19T00:11:34.999Z,8.19
2022-10-19T00:14:02.075Z,8.11
2022-10-19T00:16:32.428Z,8.05
2022-10-19T00:19:01.250Z,8.05
2022-10-19T00:21:28.722Z,7.87
2022-10-19T00:23:55.431Z,7.79
2022-10-19T00:26:22.239Z,7.79
2022-10-19T00:28:50.011Z,7.79
2022-10-19T00:31:17.924Z,7.80
2022-10-19T00:33:49.406Z,7.77
2022-10-19T00:36:21.469Z,7.77
2022-10-19T00:38:48.648Z,7.80
2022-10-19T00:41:16.451Z,7.78
2022-10-19T00:43:54.269Z,7.77
2022-10-19T00:46:21.432Z,7.86
2022-10-19T00:51:16.145Z,7.74
2022-10-19T00:53:42.756Z,7.68
2022-10-19T00:56:13.943Z,7.67
2022-10-19T00:58:41.845Z,7.51
2022-10-19T01:01:10.891Z,7.45
2022-10-19T01:03:39.495Z,7.43
2022-10-19T01:06:06.569Z,7.47
2022-10-19T01:08:33.683Z,7.34
2022-10-19T01:11:22.195Z,7.26
2022-10-19T01:14:19.246Z,7.28
2022-10-19T01:17:23.883Z,7.38
2022-10-19T01:19:53.263Z,7.28
2022-10-19T01:22:51.040Z,7.25
2022-10-19T01:25:28.484Z,7.34
2022-10-19T01:28:16.983Z,7.27
2022-10-19T01:31:01.970Z,7.21
2022-10-19T01:33:46.113Z,7.25
2022-10-19T01:36:22.146Z,7.25
2022-10-19T01:39:06.795Z,7.17
2022-10-19T01:42:05.633Z,7.18
2022-10-19T01:44:54.099Z,7.22
2022-10-19T01:47:26.247Z,7.22
2022-10-19T01:50:01.828Z,7.27
2022-10-19T01:52:29.942Z,7.34
2022-10-19T01:54:58.413Z,7.39
2022-10-19T01:57:37.067Z,7.43
2022-10-19T02:00:07.604Z,7.35
2022-10-19T02:02:36.620Z,7.43
2022-10-19T02:05:06.079Z,7.58
2022-10-19T02:07:33.968Z,7.49
2022-10-19T02:10:01.332Z,7.40
2022-10-19T02:12:31.041Z,7.33
2022-10-19T02:15:02.047Z,7.44
2022-10-19T02:17:38.056Z,7.36
2022-10-19T02:20:05.121Z,7.35
2022-10-19T02:22:31.875Z,7.38
2022-10-19T02:24:58.891Z,7.39
2022-10-19T02:27:25.998Z,7.48
2022-10-19T02:29:53.942Z,7.48
2022-10-19T02:32:20.711Z,7.44
2022-10-19T02:34:47.502Z,7.44
2022-10-19T02:37:14.187Z,7.58
2022-10-19T02:39:40.844Z,7.59
2022-10-19T02:42:15.077Z,7.59
2022-10-19T02:44:48.395Z,7.67
2022-10-19T02:47:27.840Z,7.82
2022-10-19T02:49:54.383Z,7.89
2022-10-19T02:52:20.939Z,7.96
2022-10-19T02:54:47.514Z,8.01
2022-10-19T02:57:22.766Z,8.20
2022-10-19T02:59:49.721Z,8.23
2022-10-19T03:02:17.557Z,8.31
2022-10-19T03:04:45.251Z,8.38
2022-10-19T03:07:14.881Z,8.25
2022-10-19T03:09:42.426Z,8.36
2022-10-19T03:12:09.615Z,8.21
2022-10-19T03:14:36.176Z,8.30
2022-10-19T03:17:03.227Z,8.36
2022-10-19T03:19:30.011Z,8.32
2022-10-19T03:21:59.422Z,8.46
2022-10-19T03:24:26.138Z,8.58
2022-10-19T03:26:52.998Z,8.65
2022-10-19T03:29:19.575Z,8.67
2022-10-19T03:31:46.121Z,8.79
2022-10-19T03:34:12.681Z,8.86
2022-10-19T03:36:40.660Z,8.84
2022-10-19T03:39:11.469Z,8.81
2022-10-19T03:41:39.053Z,8.84
2022-10-19T03:44:07.329Z,8.89
2022-10-19T03:46:35.570Z,8.85
2022-10-19T03:49:03.114Z,8.97
2022-10-19T03:51:31.286Z,8.85
2022-10-19T03:54:06.674Z,9.05
2022-10-19T03:56:35.176Z,9.10
2022-10-19T03:59:04.068Z,9.21
2022-10-19T04:01:33.879Z,9.23
2022-10-19T04:04:02.876Z,9.16
2022-10-19T04:06:40.478Z,9.12
2022-10-19T04:09:08.308Z,9.05
2022-10-19T04:11:35.724Z,8.84
2022-10-19T04:14:02.689Z,8.80
2022-10-19T04:16:30.819Z,8.95
2022-10-19T04:18:57.856Z,8.77
2022-10-19T04:21:31.787Z,8.82
2022-10-19T04:24:18.628Z,8.82
2022-10-19T04:26:48.048Z,8.65
2022-10-19T04:29:16.089Z,8.68
2022-10-19T04:31:42.790Z,8.79
2022-10-19T04:34:09.701Z,8.58
2022-10-19T04:36:36.715Z,8.50
2022-10-19T04:39:04.665Z,8.39
2022-10-19T04:41:31.468Z,8.36
2022-10-19T04:43:59.858Z,8.18
2022-10-19T04:46:27.677Z,8.00
2022-10-19T04:48:55.636Z,7.84
2022-10-19T04:51:24.323Z,7.89
2022-10-19T04:53:51.912Z,7.80
2022-10-19T04:56:22.369Z,7.72
2022-10-19T04:58:49.424Z,7.65
2022-10-19T05:01:19.370Z,7.52
2022-10-19T05:03:46.794Z,7.55
2022-10-19T05:06:15.317Z,7.33
2022-10-19T05:08:42.192Z,7.30
2022-10-19T05:11:12.652Z,7.30
2022-10-19T05:13:39.217Z,7.37
2022-10-19T05:16:08.364Z,7.23
2022-10-19T05:18:35.584Z,7.15
2022-10-19T05:21:07.940Z,7.14
2022-10-19T05:23:35.015Z,7.16
2022-10-19T05:26:10.955Z,7.08
2022-10-19T05:28:37.992Z,7.13
2022-10-19T05:31:12.623Z,7.18
2022-10-19T05:33:39.767Z,7.24
2022-10-19T05:36:34.315Z,7.33
2022-10-19T05:39:13.146Z,7.47
2022-10-19T05:41:41.826Z,7.38
2022-10-19T05:44:12.047Z,7.44
2022-10-19T05:46:38.595Z,7.52
2022-10-19T05:49:05.212Z,7.57
2022-10-19T05:51:31.755Z,7.70
2022-10-19T05:53:58.456Z,7.75
2022-10-19T05:56:28.519Z,7.93
2022-10-19T05:58:56.992Z,8.40
2022-10-19T06:01:23.911Z,8.96
2022-10-19T06:03:55.177Z,9.39
2022-10-19T06:06:22.701Z,9.82
2022-10-19T06:08:50.237Z,10.20
2022-10-19T06:11:23.890Z,10.44
2022-10-19T06:13:51.733Z,10.67
2022-10-19T06:16:19.512Z,10.98
2022-10-19T06:18:46.773Z,11.09
2022-10-19T06:21:15.921Z,11.24
2022-10-19T06:23:43.278Z,11.36
2022-10-19T06:26:13.092Z,11.52
2022-10-19T06:28:41.397Z,11.62
2022-10-19T06:31:09.392Z,11.71
2022-10-19T06:33:36.827Z,11.86
2022-10-19T06:36:11.505Z,11.91
2022-10-19T06:38:38.615Z,12.07
2022-10-19T06:41:06.124Z,11.99
2022-10-19T06:43:33.591Z,12.12
2022-10-19T06:46:04.614Z,12.28
2022-10-19T06:48:31.376Z,12.36
2022-10-19T06:50:59.487Z,12.44
2022-10-19T06:53:27.244Z,12.46
2022-10-19T06:55:53.917Z,12.62
2022-10-19T06:58:20.719Z,12.78
2022-10-19T07:00:55.015Z,12.87
2022-10-19T07:03:21.673Z,13.01
2022-10-19T07:05:59.011Z,13.18
2022-10-19T07:08:27.923Z,13.18
2022-10-19T07:11:00.315Z,13.39
2022-10-19T07:13:30.109Z,13.67
2022-10-19T07:15:59.155Z,13.87
2022-10-19T07:18:27.340Z,13.97
2022-10-19T07:20:58.685Z,14.20
2022-10-19T07:23:27.174Z,14.42
2022-10-19T07:25:55.480Z,14.57
2022-10-19T07:28:22.491Z,14.58
2022-10-19T07:30:49.299Z,14.58
2022-10-19T07:35:43.195Z,14.97
2022-10-19T07:38:10.032Z,14.91
2022-10-19T07:40:57.400Z,14.96
2022-10-19T07:47:08.582Z,15.41
2022-10-19T07:49:35.285Z,15.74
2022-10-19T07:52:02.058Z,16.04
2022-10-19T07:54:29.100Z,15.82
2022-10-19T07:56:56.134Z,15.84
2022-10-19T07:59:23.204Z,16.13
2022-10-19T08:01:50.518Z,16.18
2022-10-19T08:07:04.284Z,16.51
2022-10-19T08:09:51.952Z,16.78
2022-10-19T08:12:17.760Z,17.06
2022-10-19T08:14:44.490Z,16.96
2022-10-19T08:17:16.646Z,17.58
2022-10-19T08:19:44.581Z,17.15
2022-10-19T08:22:11.757Z,17.70
2022-10-19T08:24:38.542Z,17.96
2022-10-19T08:27:08.715Z,17.78
2022-10-19T08:29:35.969Z,17.99
2022-10-19T08:32:02.798Z,17.69
2022-10-19T08:34:29.652Z,18.28
2022-10-19T08:36:56.965Z,18.04
2022-10-19T08:39:26.376Z,18.15
2022-10-19T08:42:08.658Z,18.69
2022-10-19T08:45:01.071Z,18.55
2022-10-19T08:47:46.648Z,18.26
2022-10-19T08:50:25.674Z,18.23
2022-10-19T08:53:02.477Z,18.44
2022-10-19T08:55:44.607Z,18.78
2022-10-19T08:58:33.364Z,19.48
2022-10-19T09:01:28.194Z,19.07
2022-10-19T09:04:25.577Z,19.40
2022-10-19T09:07:49.300Z,19.55
2022-10-19T09:10:44.432Z,19.54
2022-10-19T09:14:04.867Z,19.85
2022-10-19T09:16:32.677Z,20.03
2022-10-19T09:18:59.253Z,19.15
2022-10-19T09:21:47.818Z,19.54
2022-10-19T09:24:41.927Z,19.76
2022-10-19T09:27:22.950Z,20.12
2022-10-19T09:30:03.725Z,20.95
2022-10-19T09:32:35.587Z,21.13
2022-10-19T09:35:28.200Z,21.54
2022-10-19T09:37:55.819Z,21.23
2022-10-19T09:40:29.016Z,21.14
2022-10-19T09:43:09.515Z,21.66
2022-10-19T09:45:44.999Z,21.97
2022-10-19T09:48:35.974Z,21.99
2022-10-19T09:51:10.774Z,21.16
2022-10-19T09:53:37.906Z,22.88
2022-10-19T09:56:08.782Z,21.50
2022-10-19T09:58:35.835Z,22.08
2022-10-19T10:01:03.563Z,23.69
2022-10-19T10:03:40.286Z,24.23
2022-10-19T10:06:17.884Z,24.70
2022-10-19T10:08:50.009Z,23.09
2022-10-19T10:11:25.051Z,23.88
2022-10-19T10:13:54.301Z,25.40
2022-10-19T10:16:23.700Z,26.64
2022-10-19T10:18:55.214Z,25.09
2022-10-19T10:21:32.061Z,25.02
2022-10-19T10:24:11.644Z,26.21
2022-10-19T10:26:42.846Z,23.83
2022-10-19T10:29:28.176Z,25.29
2022-10-19T10:32:17.933Z,26.16
2022-10-19T10:34:59.873Z,26.53
2022-10-19T10:37:40.004Z,23.75
2022-10-19T10:40:23.395Z,24.32
2022-10-19T10:42:52.749Z,23.14
2022-10-19T10:45:42.762Z,22.24
2022-10-19T10:48:29.342Z,22.88
2022-10-19T10:50:58.197Z,23.66
2022-10-19T10:53:39.918Z,25.83
2022-10-19T10:56:21.746Z,25.27
2022-10-19T10:58:53.869Z,25.85
2022-10-19T11:01:23.918Z,23.42
2022-10-19T11:04:03.673Z,21.10
2022-10-19T11:06:31.616Z,20.44
2022-10-19T11:08:58.178Z,22.02
2022-10-19T11:11:35.308Z,23.82
2022-10-19T11:14:30.740Z,23.18
2022-10-19T11:17:02.765Z,23.83
2022-10-19T11:19:36.858Z,23.15
2022-10-19T11:22:35.991Z,24.61
2022-10-19T11:25:32.294Z,26.23
2022-10-19T11:28:11.518Z,25.65
2022-10-19T11:30:55.659Z,23.69
2022-10-19T11:33:28.422Z,21.39
2022-10-19T11:35:59.626Z,21.60
2022-10-19T11:38:56.062Z,21.63
2022-10-19T11:42:07.741Z,22.18
2022-10-19T11:44:40.366Z,22.70
2022-10-19T11:47:19.243Z,24.16
2022-10-19T11:49:55.110Z,23.85
2022-10-19T11:52:56.312Z,25.56
2022-10-19T11:55:38.218Z,24.32
2022-10-19T11:58:19.988Z,24.76
2022-10-19T12:01:17.131Z,24.55
2022-10-19T12:04:11.884Z,23.11
2022-10-19T12:06:58.449Z,22.68
2022-10-19T12:09:39.719Z,22.77
2022-10-19T12:12:22.264Z,22.58
2022-10-19T12:14:53.459Z,23.02
2022-10-19T12:17:33.094Z,22.38
2022-10-19T12:20:05.340Z,21.34
2022-10-19T12:22:34.380Z,21.21
2022-10-19T12:25:01.925Z,21.36
2022-10-19T12:27:34.788Z,20.76
2022-10-19T12:30:23.035Z,20.74
2022-10-19T12:33:03.581Z,20.82
2022-10-19T12:35:39.201Z,20.62
2022-10-19T12:38:24.564Z,21.06
2022-10-19T12:41:18.230Z,20.71
2022-10-19T12:44:00.087Z,20.78
2022-10-19T12:46:42.192Z,20.77
2022-10-19T12:49:30.313Z,21.11
2022-10-19T12:52:01.780Z,20.49
2022-10-19T12:54:31.248Z,21.06
2022-10-19T12:57:00.264Z,21.31
2022-10-19T12:59:33.107Z,20.45
2022-10-19T13:02:02.235Z,21.43
2022-10-19T13:04:34.949Z,21.13
2022-10-19T13:07:18.308Z,22.08
2022-10-19T13:09:48.241Z,21.29
2022-10-19T13:12:21.828Z,20.94
2022-10-19T13:14:57.283Z,21.65
2022-10-19T13:17:49.969Z,20.45
2022-10-19T13:20:19.455Z,21.24
2022-10-19T13:23:13.193Z,21.86
2022-10-19T13:25:40.591Z,21.19
2022-10-19T13:28:07.058Z,21.14
2022-10-19T13:30:39.677Z,20.74
2022-10-19T13:33:24.805Z,22.27
2022-10-19T13:36:00.192Z,21.69
2022-10-19T13:39:05.931Z,21.23
2022-10-19T13:41:38.569Z,20.19
2022-10-19T13:44:25.390Z,20.11
2022-10-19T13:47:07.523Z,19.44
2022-10-19T13:49:43.069Z,19.77
2022-10-19T13:52:28.277Z,19.71
2022-10-19T13:55:36.178Z,19.37
2022-10-19T13:58:27.040Z,18.88
2022-10-19T14:00:56.510Z,19.46
2022-10-19T14:03:35.640Z,18.80
2022-10-19T14:06:13.613Z,18.44
2022-10-19T14:08:46.214Z,18.17
2022-10-19T14:11:15.025Z,17.98
2022-10-19T14:13:41.848Z,17.89
2022-10-19T14:16:19.598Z,17.50
2022-10-19T14:18:53.946Z,17.53
2022-10-19T14:21:31.210Z,17.39
2022-10-19T14:23:57.830Z,17.20
2022-10-19T14:26:28.622Z,17.08
2022-10-19T14:28:57.313Z,17.06
2022-10-19T14:31:35.314Z,17.00
2022-10-19T14:34:04.767Z,16.91
2022-10-19T14:36:36.649Z,16.85
2022-10-19T14:39:03.743Z,16.85
2022-10-19T14:41:36.319Z,16.69
2022-10-19T14:44:28.640Z,16.74
2022-10-19T14:46:55.556Z,16.50
2022-10-19T14:49:22.155Z,16.58
2022-10-19T14:51:54.387Z,16.49
2022-10-19T14:54:31.415Z,16.40
2022-10-19T14:57:15.819Z,16.29
2022-10-19T14:59:53.317Z,16.25
2022-10-19T15:02:36.884Z,16.33
2022-10-19T15:05:06.474Z,16.20
2022-10-19T15:07:40.075Z,15.99
2022-10-19T15:10:16.107Z,15.93
2022-10-19T15:12:43.632Z,15.86
2022-10-19T15:15:26.837Z,15.71
2022-10-19T15:18:06.410Z,15.66
2022-10-19T15:20:54.989Z,15.70
2022-10-19T15:23:29.075Z,15.57
2022-10-19T15:26:00.857Z,15.55
2022-10-19T15:28:37.420Z,15.52
2022-10-19T15:31:28.647Z,15.30
2022-10-19T15:33:58.470Z,15.26
2022-10-19T15:36:26.088Z,15.23
2022-10-19T15:39:06.411Z,15.23
2022-10-19T15:41:45.409Z,15.13
2022-10-19T15:44:40.972Z,14.97
2022-10-19T15:47:21.554Z,14.91
2022-10-19T15:50:00.473Z,14.77
2022-10-19T15:52:33.660Z,14.70
2022-10-19T15:55:01.283Z,14.55
2022-10-19T15:57:34.117Z,14.51
2022-10-19T16:00:13.686Z,14.42
2022-10-19T16:02:40.887Z,14.27
2022-10-19T16:05:07.954Z,14.26
2022-10-19T16:07:38.249Z,14.22
2022-10-19T16:10:05.962Z,14.21
2022-10-19T16:12:33.357Z,14.20
2022-10-19T16:14:59.908Z,14.19
2022-10-19T16:17:29.926Z,14.16
2022-10-19T16:19:59.465Z,14.11
2022-10-19T16:22:31.327Z,14.03
2022-10-19T16:25:00.814Z,14.16
2022-10-19T16:27:27.440Z,14.13
2022-10-19T16:29:54.685Z,14.03
2022-10-19T16:32:21.324Z,14.02
2022-10-19T16:34:47.876Z,14.05
2022-10-19T16:37:14.416Z,13.94
2022-10-19T16:39:40.963Z,13.84
2022-10-19T16:42:07.717Z,13.74
2022-10-19T16:44:34.312Z,13.82
2022-10-19T16:47:00.943Z,13.72
2022-10-19T16:49:27.585Z,13.67
2022-10-19T16:51:57.196Z,13.45
2022-10-19T16:54:26.585Z,13.51
2022-10-19T16:56:53.289Z,13.50
2022-10-19T16:59:19.890Z,13.50
2022-10-19T17:01:47.058Z,13.41
2022-10-19T17:04:15.384Z,13.17
2022-10-19T17:06:42.217Z,13.40
2022-10-19T17:09:40.921Z,13.31
2022-10-19T17:11:55.844Z,13.19
2022-10-19T17:14:22.394Z,13.26
2022-10-19T17:16:49.044Z,13.15
2022-10-19T17:19:15.739Z,13.30
2022-10-19T17:21:42.654Z,13.18
2022-10-19T17:24:17.149Z,13.02
2022-10-19T17:26:48.878Z,13.09
2022-10-19T17:29:15.447Z,13.00
2022-10-19T17:31:42.688Z,12.83
2022-10-19T17:34:09.647Z,12.79
2022-10-19T17:39:19.364Z,12.65
2022-10-19T17:41:48.008Z,12.61
2022-10-19T17:44:15.544Z,12.65
2022-10-19T17:46:42.347Z,12.66
2022-10-19T17:49:09.841Z,12.78
2022-10-19T17:51:37.654Z,12.73
2022-10-19T17:54:11.367Z,12.68
2022-10-19T17:56:38.892Z,12.59
2022-10-19T17:59:07.957Z,12.64
2022-10-19T18:01:35.317Z,12.62
2022-10-19T18:04:01.922Z,12.58
2022-10-19T18:06:34.020Z,12.51
2022-10-19T18:09:01.962Z,12.52
2022-10-19T18:11:32.070Z,12.34
2022-10-19T18:14:00.835Z,12.32
2022-10-19T18:16:30.709Z,12.24
2022-10-19T18:18:59.173Z,12.24
2022-10-19T18:21:30.088Z,12.20
2022-10-19T18:23:58.489Z,12.05
2022-10-19T18:26:27.639Z,11.98
2022-10-19T18:28:55.380Z,11.86
2022-10-19T18:31:25.151Z,11.86
2022-10-19T18:34:00.823Z,11.77
2022-10-19T18:36:27.505Z,11.63
2022-10-19T18:38:57.082Z,11.65
2022-10-19T18:41:24.347Z,11.67
2022-10-19T18:43:56.865Z,11.57
2022-10-19T18:46:25.152Z,11.51
2022-10-19T18:48:52.070Z,11.48
2022-10-19T18:51:19.273Z,11.40
2022-10-19T18:53:47.334Z,11.41
2022-10-19T18:56:16.543Z,11.35
2022-10-19T18:58:43.137Z,11.29
2022-10-19T19:01:12.380Z,11.26
2022-10-19T19:03:41.192Z,11.29
2022-10-19T19:06:13.490Z,11.17
2022-10-19T19:08:40.616Z,11.12
2022-10-19T19:11:11.549Z,11.10
2022-10-19T19:13:38.870Z,11.04
2022-10-19T19:16:06.320Z,10.96
2022-10-19T19:18:34.155Z,10.93
2022-10-19T19:21:20.182Z,10.88
2022-10-19T19:23:47.847Z,10.80
2022-10-19T19:26:15.529Z,10.65
2022-10-19T19:28:44.218Z,10.53
2022-10-19T19:31:15.303Z,10.38
2022-10-19T19:33:43.306Z,10.47
2022-10-19T19:36:11.898Z,10.48
2022-10-19T19:38:38.433Z,10.37
2022-10-19T19:41:07.620Z,10.27
2022-10-19T19:43:37.057Z,10.24
2022-10-19T19:46:09.484Z,10.18
2022-10-19T19:48:36.870Z,9.99
2022-10-19T19:51:03.628Z,9.79
2022-10-19T19:53:30.348Z,9.62
2022-10-19T19:55:56.959Z,9.45
2022-10-19T19:58:23.510Z,9.27
2022-10-19T20:00:50.094Z,9.16
2022-10-19T20:03:16.663Z,8.98
2022-10-19T20:05:43.216Z,9.06
2022-10-19T20:08:10.056Z,8.92
2022-10-19T20:10:41.315Z,8.80
2022-10-19T20:13:08.177Z,8.72
2022-10-19T20:15:38.440Z,8.68
2022-10-19T20:18:06.009Z,8.51
2022-10-19T20:20:32.607Z,8.37
2022-10-19T20:22:59.235Z,8.11
2022-10-19T20:25:25.840Z,7.97
2022-10-19T20:27:52.499Z,7.72
2022-10-19T20:30:19.126Z,7.64
2022-10-19T20:32:45.666Z,7.30
2022-10-19T20:35:12.219Z,7.28
2022-10-19T20:37:38.854Z,7.18
2022-10-19T20:40:08.833Z,6.92
2022-10-19T20:42:36.320Z,6.93
2022-10-19T20:45:03.702Z,6.83
2022-10-19T20:47:30.369Z,6.74
2022-10-19T20:49:57.097Z,6.72
2022-10-19T20:52:23.779Z,6.60
2022-10-19T20:54:52.459Z,6.53
2022-10-19T20:57:19.001Z,6.46
2022-10-19T20:59:45.788Z,6.40
2022-10-19T21:02:12.456Z,6.33
2022-10-19T21:04:39.043Z,6.26
2022-10-19T21:07:05.651Z,6.23
2022-10-19T21:09:32.354Z,6.14
2022-10-19T21:11:59.168Z,6.14
2022-10-19T21:14:28.964Z,6.03
2022-10-19T21:17:00.312Z,5.99
2022-10-19T21:19:30.848Z,5.95
2022-10-19T21:22:01.753Z,5.79
2022-10-19T21:24:34.206Z,5.78
2022-10-19T21:27:03.976Z,5.76
2022-10-19T21:29:31.131Z,5.69
2022-10-19T21:31:57.838Z,5.66
2022-10-19T21:34:27.501Z,5.61
2022-10-19T21:36:54.644Z,5.54
2022-10-19T21:39:21.285Z,5.47
2022-10-19T21:41:48.565Z,5.41
2022-10-19T21:44:16.454Z,5.29
2022-10-19T21:46:43.635Z,5.23
2022-10-19T21:49:12.186Z,5.30
2022-10-19T21:52:05.061Z,5.20
2022-10-19T21:54:31.592Z,5.10
2022-10-19T21:57:00.363Z,5.00
2022-10-19T21:59:27.062Z,4.99
2022-10-19T22:04:59.024Z,4.95
2022-10-19T22:07:25.549Z,4.98
2022-10-19T22:09:52.466Z,5.08
2022-10-19T22:12:19.004Z,5.19
2022-10-19T22:14:45.564Z,5.25
2022-10-19T22:17:12.281Z,5.28
2022-10-19T22:19:38.823Z,5.34
2022-10-19T22:22:05.435Z,5.33
2022-10-19T22:24:31.951Z,5.28
2022-10-19T22:26:58.525Z,5.25
2022-10-19T22:29:25.097Z,5.26
2022-10-19T22:31:51.656Z,5.25
2022-10-19T22:34:18.273Z,5.23
2022-10-19T22:36:45.248Z,5.27
2022-10-19T22:39:12.780Z,5.26
2022-10-19T22:41:39.310Z,5.24
2022-10-19T22:44:06.066Z,5.25
2022-10-19T22:46:32.805Z,5.21
2022-10-19T22:48:59.422Z,5.10
2022-10-19T22:51:26.000Z,5.12
2022-10-19T22:53:52.569Z,5.13
2022-10-19T22:56:19.165Z,5.15
2022-10-19T22:58:45.750Z,5.30
2022-10-19T23:01:14.841Z,5.33
2022-10-19T23:03:42.197Z,5.49
2022-10-19T23:06:11.049Z,5.50
2022-10-19T23:08:38.077Z,5.53
2022-10-19T23:11:05.326Z,5.88
2022-10-19T23:13:32.016Z,5.85
2022-10-19T23:15:58.609Z,5.91
2022-10-19T23:18:25.192Z,5.89
2022-10-19T23:21:00.248Z,5.89
2022-10-19T23:23:28.370Z,5.99
2022-10-19T23:26:06.739Z,5.98
2022-10-19T23:28:35.465Z,5.86
2022-10-19T23:31:17.050Z,5.81
2022-10-19T23:33:44.409Z,5.75
2022-10-19T23:36:15.674Z,5.75
2022-10-19T23:38:43.901Z,5.64
2022-10-19T23:41:11.181Z,5.54
2022-10-19T23:43:37.985Z,5.46
2022-10-19T23:46:04.618Z,5.25
2022-10-19T23:48:31.211Z,5.25
2022-10-19T23:51:03.276Z,4.99
2022-10-19T23:53:34.642Z,4.91
2022-10-19T23:56:07.004Z,4.84
2022-10-19T23:58:34.337Z,4.69
